sensor_id;sensor_type;location;lat;lon;timestamp;P1;durP1;ratioP1;P2;durP2;ratioP2
24084;SDS011;12268;52.110;5.548;2022-07-29T00:01:19;3.00;;;1.73;;
24084;SDS011;12268;52.110;5.548;2022-07-29T00:03:45;6.50;;;1.80;;
24084;SDS011;12268;52.110;5.548;2022-07-29T00:06:10;4.18;;;1.73;;
24084;SDS011;12268;52.110;5.548;2022-07-29T00:08:36;3.20;;;1.50;;
24084;SDS011;12268;52.110;5.548;2022-07-29T00:11:01;3.65;;;1.75;;
24084;SDS011;12268;52.110;5.548;2022-07-29T00:13:27;3.05;;;1.80;;
24084;SDS011;12268;52.110;5.548;2022-07-29T00:15:52;2.58;;;1.77;;
24084;SDS011;12268;52.110;5.548;2022-07-29T00:18:18;3.10;;;1.73;;
24084;SDS011;12268;52.110;5.548;2022-07-29T00:20:43;3.85;;;1.70;;
24084;SDS011;12268;52.110;5.548;2022-07-29T00:23:09;3.47;;;1.52;;
24084;SDS011;12268;52.110;5.548;2022-07-29T00:25:35;6.43;;;1.85;;
24084;SDS011;12268;52.110;5.548;2022-07-29T00:28:00;4.90;;;1.88;;
24084;SDS011;12268;52.110;5.548;2022-07-29T00:30:26;5.30;;;2.05;;
24084;SDS011;12268;52.110;5.548;2022-07-29T00:32:51;3.72;;;2.00;;
24084;SDS011;12268;52.110;5.548;2022-07-29T00:35:17;2.80;;;1.73;;
24084;SDS011;12268;52.110;5.548;2022-07-29T00:38:01;5.65;;;1.90;;
24084;SDS011;12268;52.110;5.548;2022-07-29T00:40:26;3.80;;;1.77;;
24084;SDS011;12268;52.110;5.548;2022-07-29T00:42:52;4.32;;;1.90;;
24084;SDS011;12268;52.110;5.548;2022-07-29T00:45:18;4.22;;;2.50;;
24084;SDS011;12268;52.110;5.548;2022-07-29T00:47:44;2.35;;;1.70;;
24084;SDS011;12268;52.110;5.548;2022-07-29T00:50:11;3.63;;;2.03;;
24084;SDS011;12268;52.110;5.548;2022-07-29T00:52:38;2.97;;;1.65;;
24084;SDS011;12268;52.110;5.548;2022-07-29T00:55:06;2.92;;;1.98;;
24084;SDS011;12268;52.110;5.548;2022-07-29T00:57:34;5.68;;;1.83;;
24084;SDS011;12268;52.110;5.548;2022-07-29T01:00:00;3.45;;;1.85;;
24084;SDS011;12268;52.110;5.548;2022-07-29T01:02:26;3.50;;;1.70;;
24084;SDS011;12268;52.110;5.548;2022-07-29T01:04:51;5.43;;;1.90;;
24084;SDS011;12268;52.110;5.548;2022-07-29T01:07:18;4.90;;;2.10;;
24084;SDS011;12268;52.110;5.548;2022-07-29T01:09:43;4.60;;;1.90;;
24084;SDS011;12268;52.110;5.548;2022-07-29T01:12:11;5.82;;;2.00;;
24084;SDS011;12268;52.110;5.548;2022-07-29T01:14:48;3.78;;;1.88;;
24084;SDS011;12268;52.110;5.548;2022-07-29T01:21:04;3.40;;;1.77;;
24084;SDS011;12268;52.110;5.548;2022-07-29T01:29:02;4.93;;;2.20;;
24084;SDS011;12268;52.110;5.548;2022-07-29T01:31:31;5.53;;;2.08;;
24084;SDS011;12268;52.110;5.548;2022-07-29T01:34:11;5.07;;;2.58;;
24084;SDS011;12268;52.110;5.548;2022-07-29T01:39:12;2.72;;;2.22;;
24084;SDS011;12268;52.110;5.548;2022-07-29T01:41:47;9.65;;;2.35;;
24084;SDS011;12268;52.110;5.548;2022-07-29T01:44:22;3.92;;;1.95;;
24084;SDS011;12268;52.110;5.548;2022-07-29T01:47:02;3.33;;;2.33;;
24084;SDS011;12268;52.110;5.548;2022-07-29T01:49:35;4.85;;;2.35;;
24084;SDS011;12268;52.110;5.548;2022-07-29T01:52:07;6.05;;;2.13;;
24084;SDS011;12268;52.110;5.548;2022-07-29T01:54:57;6.28;;;2.42;;
24084;SDS011;12268;52.110;5.548;2022-07-29T01:57:26;6.75;;;2.42;;
24084;SDS011;12268;52.110;5.548;2022-07-29T01:59:56;5.90;;;2.90;;
24084;SDS011;12268;52.110;5.548;2022-07-29T02:02:23;4.20;;;2.40;;
24084;SDS011;12268;52.110;5.548;2022-07-29T02:04:51;3.28;;;2.22;;
24084;SDS011;12268;52.110;5.548;2022-07-29T02:07:20;9.85;;;2.90;;
24084;SDS011;12268;52.110;5.548;2022-07-29T02:09:49;3.88;;;2.15;;
24084;SDS011;12268;52.110;5.548;2022-07-29T02:12:16;4.75;;;2.38;;
24084;SDS011;12268;52.110;5.548;2022-07-29T02:14:44;5.13;;;2.33;;
24084;SDS011;12268;52.110;5.548;2022-07-29T02:17:12;5.68;;;2.60;;
24084;SDS011;12268;52.110;5.548;2022-07-29T02:19:41;5.25;;;2.30;;
24084;SDS011;12268;52.110;5.548;2022-07-29T02:22:09;12.27;;;2.95;;
24084;SDS011;12268;52.110;5.548;2022-07-29T02:24:35;5.07;;;2.83;;
24084;SDS011;12268;52.110;5.548;2022-07-29T02:27:05;5.55;;;2.70;;
24084;SDS011;12268;52.110;5.548;2022-07-29T02:29:32;5.65;;;2.67;;
24084;SDS011;12268;52.110;5.548;2022-07-29T02:31:59;6.80;;;2.70;;
24084;SDS011;12268;52.110;5.548;2022-07-29T02:34:28;7.13;;;2.88;;
24084;SDS011;12268;52.110;5.548;2022-07-29T02:36:55;4.10;;;2.55;;
24084;SDS011;12268;52.110;5.548;2022-07-29T02:39:21;3.92;;;2.30;;
24084;SDS011;12268;52.110;5.548;2022-07-29T02:41:48;4.85;;;2.40;;
24084;SDS011;12268;52.110;5.548;2022-07-29T02:44:19;4.90;;;2.50;;
24084;SDS011;12268;52.110;5.548;2022-07-29T02:46:53;7.10;;;2.63;;
24084;SDS011;12268;52.110;5.548;2022-07-29T02:49:42;4.47;;;2.55;;
24084;SDS011;12268;52.110;5.548;2022-07-29T02:52:26;5.03;;;2.42;;
24084;SDS011;12268;52.110;5.548;2022-07-29T02:54:58;3.70;;;2.30;;
24084;SDS011;12268;52.110;5.548;2022-07-29T02:57:37;4.97;;;2.72;;
24084;SDS011;12268;52.110;5.548;2022-07-29T03:00:23;5.43;;;2.95;;
24084;SDS011;12268;52.110;5.548;2022-07-29T03:02:53;4.13;;;2.90;;
24084;SDS011;12268;52.110;5.548;2022-07-29T03:05:21;4.88;;;2.70;;
24084;SDS011;12268;52.110;5.548;2022-07-29T03:07:51;6.43;;;2.60;;
24084;SDS011;12268;52.110;5.548;2022-07-29T03:10:22;4.45;;;2.28;;
24084;SDS011;12268;52.110;5.548;2022-07-29T03:12:49;6.15;;;2.72;;
24084;SDS011;12268;52.110;5.548;2022-07-29T03:15:15;5.18;;;2.72;;
24084;SDS011;12268;52.110;5.548;2022-07-29T03:17:42;5.40;;;2.60;;
24084;SDS011;12268;52.110;5.548;2022-07-29T03:20:08;5.13;;;3.00;;
24084;SDS011;12268;52.110;5.548;2022-07-29T03:22:39;4.68;;;2.53;;
24084;SDS011;12268;52.110;5.548;2022-07-29T03:25:11;5.93;;;2.78;;
24084;SDS011;12268;52.110;5.548;2022-07-29T03:27:37;7.32;;;2.67;;
24084;SDS011;12268;52.110;5.548;2022-07-29T03:30:04;8.13;;;2.92;;
24084;SDS011;12268;52.110;5.548;2022-07-29T03:32:30;5.13;;;2.45;;
24084;SDS011;12268;52.110;5.548;2022-07-29T03:34:56;12.93;;;3.20;;
24084;SDS011;12268;52.110;5.548;2022-07-29T03:37:21;10.93;;;2.90;;
24084;SDS011;12268;52.110;5.548;2022-07-29T03:39:47;7.28;;;2.63;;
24084;SDS011;12268;52.110;5.548;2022-07-29T03:42:15;7.90;;;2.70;;
24084;SDS011;12268;52.110;5.548;2022-07-29T03:44:42;6.05;;;2.65;;
24084;SDS011;12268;52.110;5.548;2022-07-29T03:47:10;5.07;;;2.70;;
24084;SDS011;12268;52.110;5.548;2022-07-29T03:49:39;5.00;;;2.60;;
24084;SDS011;12268;52.110;5.548;2022-07-29T03:52:07;4.35;;;2.58;;
24084;SDS011;12268;52.110;5.548;2022-07-29T03:54:33;3.83;;;2.60;;
24084;SDS011;12268;52.110;5.548;2022-07-29T03:56:59;6.35;;;2.63;;
24084;SDS011;12268;52.110;5.548;2022-07-29T03:59:26;6.28;;;2.47;;
24084;SDS011;12268;52.110;5.548;2022-07-29T04:01:52;5.25;;;2.80;;
24084;SDS011;12268;52.110;5.548;2022-07-29T04:04:20;3.45;;;2.15;;
24084;SDS011;12268;52.110;5.548;2022-07-29T04:06:46;7.60;;;2.60;;
24084;SDS011;12268;52.110;5.548;2022-07-29T04:09:12;2.88;;;2.10;;
24084;SDS011;12268;52.110;5.548;2022-07-29T04:11:38;7.57;;;2.60;;
24084;SDS011;12268;52.110;5.548;2022-07-29T04:14:05;6.40;;;2.33;;
24084;SDS011;12268;52.110;5.548;2022-07-29T04:16:30;5.15;;;2.60;;
24084;SDS011;12268;52.110;5.548;2022-07-29T04:18:56;5.35;;;2.50;;
24084;SDS011;12268;52.110;5.548;2022-07-29T04:21:22;5.22;;;2.72;;
24084;SDS011;12268;52.110;5.548;2022-07-29T04:23:47;7.38;;;2.90;;
24084;SDS011;12268;52.110;5.548;2022-07-29T04:26:15;4.95;;;2.70;;
24084;SDS011;12268;52.110;5.548;2022-07-29T04:28:43;4.03;;;2.67;;
24084;SDS011;12268;52.110;5.548;2022-07-29T04:31:09;4.32;;;2.53;;
24084;SDS011;12268;52.110;5.548;2022-07-29T04:33:35;9.32;;;2.40;;
24084;SDS011;12268;52.110;5.548;2022-07-29T04:36:01;4.97;;;2.25;;
24084;SDS011;12268;52.110;5.548;2022-07-29T04:38:26;4.75;;;2.55;;
24084;SDS011;12268;52.110;5.548;2022-07-29T04:40:52;4.00;;;2.40;;
24084;SDS011;12268;52.110;5.548;2022-07-29T04:43:18;7.18;;;3.47;;
24084;SDS011;12268;52.110;5.548;2022-07-29T04:45:43;4.22;;;2.17;;
24084;SDS011;12268;52.110;5.548;2022-07-29T04:48:09;8.32;;;2.70;;
24084;SDS011;12268;52.110;5.548;2022-07-29T04:50:37;3.92;;;2.63;;
24084;SDS011;12268;52.110;5.548;2022-07-29T04:53:03;4.75;;;2.25;;
24084;SDS011;12268;52.110;5.548;2022-07-29T04:55:28;8.32;;;2.50;;
24084;SDS011;12268;52.110;5.548;2022-07-29T04:57:54;4.50;;;2.70;;
24084;SDS011;12268;52.110;5.548;2022-07-29T05:00:19;5.15;;;2.70;;
24084;SDS011;12268;52.110;5.548;2022-07-29T05:02:45;4.18;;;2.25;;
24084;SDS011;12268;52.110;5.548;2022-07-29T05:05:10;6.25;;;2.67;;
24084;SDS011;12268;52.110;5.548;2022-07-29T05:07:36;6.55;;;4.88;;
24084;SDS011;12268;52.110;5.548;2022-07-29T05:10:02;6.90;;;2.97;;
24084;SDS011;12268;52.110;5.548;2022-07-29T05:12:28;3.47;;;2.40;;
24084;SDS011;12268;52.110;5.548;2022-07-29T05:14:53;4.00;;;2.42;;
24084;SDS011;12268;52.110;5.548;2022-07-29T05:17:19;6.13;;;2.40;;
24084;SDS011;12268;52.110;5.548;2022-07-29T05:19:45;3.47;;;2.28;;
24084;SDS011;12268;52.110;5.548;2022-07-29T05:22:11;3.78;;;2.22;;
24084;SDS011;12268;52.110;5.548;2022-07-29T05:24:36;3.83;;;2.20;;
24084;SDS011;12268;52.110;5.548;2022-07-29T05:27:02;7.97;;;2.60;;
24084;SDS011;12268;52.110;5.548;2022-07-29T05:29:27;3.42;;;1.83;;
24084;SDS011;12268;52.110;5.548;2022-07-29T05:31:53;3.40;;;2.30;;
24084;SDS011;12268;52.110;5.548;2022-07-29T05:34:19;7.50;;;2.70;;
24084;SDS011;12268;52.110;5.548;2022-07-29T05:36:44;3.58;;;2.30;;
24084;SDS011;12268;52.110;5.548;2022-07-29T05:39:10;9.00;;;2.70;;
24084;SDS011;12268;52.110;5.548;2022-07-29T05:41:37;4.18;;;2.40;;
24084;SDS011;12268;52.110;5.548;2022-07-29T05:44:03;5.03;;;2.58;;
24084;SDS011;12268;52.110;5.548;2022-07-29T05:46:29;3.33;;;2.55;;
24084;SDS011;12268;52.110;5.548;2022-07-29T05:48:54;4.00;;;2.65;;
24084;SDS011;12268;52.110;5.548;2022-07-29T05:51:20;7.15;;;2.65;;
24084;SDS011;12268;52.110;5.548;2022-07-29T05:53:45;4.15;;;2.67;;
24084;SDS011;12268;52.110;5.548;2022-07-29T05:56:11;6.43;;;2.60;;
24084;SDS011;12268;52.110;5.548;2022-07-29T05:58:36;6.13;;;2.83;;
24084;SDS011;12268;52.110;5.548;2022-07-29T06:01:02;6.90;;;2.72;;
24084;SDS011;12268;52.110;5.548;2022-07-29T06:03:28;4.43;;;2.88;;
24084;SDS011;12268;52.110;5.548;2022-07-29T06:05:54;3.88;;;2.65;;
24084;SDS011;12268;52.110;5.548;2022-07-29T06:08:19;6.35;;;2.65;;
24084;SDS011;12268;52.110;5.548;2022-07-29T06:10:45;4.40;;;2.63;;
24084;SDS011;12268;52.110;5.548;2022-07-29T06:13:11;5.63;;;2.92;;
24084;SDS011;12268;52.110;5.548;2022-07-29T06:15:37;6.35;;;2.97;;
24084;SDS011;12268;52.110;5.548;2022-07-29T06:18:02;5.90;;;2.78;;
24084;SDS011;12268;52.110;5.548;2022-07-29T06:20:29;4.63;;;2.78;;
24084;SDS011;12268;52.110;5.548;2022-07-29T06:22:55;8.05;;;2.75;;
24084;SDS011;12268;52.110;5.548;2022-07-29T06:25:21;5.15;;;2.75;;
24084;SDS011;12268;52.110;5.548;2022-07-29T06:27:46;5.13;;;2.55;;
24084;SDS011;12268;52.110;5.548;2022-07-29T06:30:12;5.57;;;2.85;;
24084;SDS011;12268;52.110;5.548;2022-07-29T06:32:38;5.00;;;2.80;;
24084;SDS011;12268;52.110;5.548;2022-07-29T06:35:03;5.47;;;2.70;;
24084;SDS011;12268;52.110;5.548;2022-07-29T06:37:29;5.50;;;2.88;;
24084;SDS011;12268;52.110;5.548;2022-07-29T06:39:55;5.25;;;3.08;;
24084;SDS011;12268;52.110;5.548;2022-07-29T06:42:42;4.45;;;2.53;;
24084;SDS011;12268;52.110;5.548;2022-07-29T06:45:09;5.20;;;2.88;;
24084;SDS011;12268;52.110;5.548;2022-07-29T06:47:35;8.13;;;2.97;;
24084;SDS011;12268;52.110;5.548;2022-07-29T06:50:01;8.00;;;3.40;;
24084;SDS011;12268;52.110;5.548;2022-07-29T06:52:27;5.15;;;2.97;;
24084;SDS011;12268;52.110;5.548;2022-07-29T06:54:52;6.45;;;3.30;;
24084;SDS011;12268;52.110;5.548;2022-07-29T06:57:19;6.53;;;3.03;;
24084;SDS011;12268;52.110;5.548;2022-07-29T06:59:45;9.18;;;3.40;;
24084;SDS011;12268;52.110;5.548;2022-07-29T07:02:11;9.07;;;2.63;;
24084;SDS011;12268;52.110;5.548;2022-07-29T07:04:36;7.18;;;2.90;;
24084;SDS011;12268;52.110;5.548;2022-07-29T07:07:02;5.15;;;2.90;;
24084;SDS011;12268;52.110;5.548;2022-07-29T07:09:28;7.97;;;2.70;;
24084;SDS011;12268;52.110;5.548;2022-07-29T07:11:53;6.55;;;2.80;;
24084;SDS011;12268;52.110;5.548;2022-07-29T07:14:19;4.95;;;2.60;;
24084;SDS011;12268;52.110;5.548;2022-07-29T07:16:44;5.57;;;2.72;;
24084;SDS011;12268;52.110;5.548;2022-07-29T07:19:10;5.03;;;2.88;;
24084;SDS011;12268;52.110;5.548;2022-07-29T07:21:35;5.32;;;2.83;;
24084;SDS011;12268;52.110;5.548;2022-07-29T07:24:01;4.88;;;2.75;;
24084;SDS011;12268;52.110;5.548;2022-07-29T07:26:26;5.07;;;2.85;;
24084;SDS011;12268;52.110;5.548;2022-07-29T07:28:52;5.43;;;3.13;;
24084;SDS011;12268;52.110;5.548;2022-07-29T07:31:18;6.63;;;2.55;;
24084;SDS011;12268;52.110;5.548;2022-07-29T07:33:43;5.85;;;3.28;;
24084;SDS011;12268;52.110;5.548;2022-07-29T07:36:09;6.75;;;3.28;;
24084;SDS011;12268;52.110;5.548;2022-07-29T07:38:35;10.50;;;3.42;;
24084;SDS011;12268;52.110;5.548;2022-07-29T07:41:00;6.13;;;3.10;;
24084;SDS011;12268;52.110;5.548;2022-07-29T07:43:26;7.55;;;3.30;;
24084;SDS011;12268;52.110;5.548;2022-07-29T07:45:52;4.57;;;3.55;;
24084;SDS011;12268;52.110;5.548;2022-07-29T07:48:17;4.40;;;3.05;;
24084;SDS011;12268;52.110;5.548;2022-07-29T07:50:43;5.75;;;3.10;;
24084;SDS011;12268;52.110;5.548;2022-07-29T07:53:09;7.25;;;3.00;;
24084;SDS011;12268;52.110;5.548;2022-07-29T07:55:39;7.60;;;3.28;;
24084;SDS011;12268;52.110;5.548;2022-07-29T07:58:05;8.02;;;3.47;;
24084;SDS011;12268;52.110;5.548;2022-07-29T08:00:31;6.72;;;3.42;;
24084;SDS011;12268;52.110;5.548;2022-07-29T08:02:57;7.88;;;3.10;;
24084;SDS011;12268;52.110;5.548;2022-07-29T08:05:23;6.32;;;3.33;;
24084;SDS011;12268;52.110;5.548;2022-07-29T08:07:48;5.15;;;2.83;;
24084;SDS011;12268;52.110;5.548;2022-07-29T08:10:15;6.18;;;3.10;;
24084;SDS011;12268;52.110;5.548;2022-07-29T08:13:03;6.65;;;3.10;;
24084;SDS011;12268;52.110;5.548;2022-07-29T08:15:29;7.10;;;3.22;;
24084;SDS011;12268;52.110;5.548;2022-07-29T08:17:55;4.65;;;3.05;;
24084;SDS011;12268;52.110;5.548;2022-07-29T08:20:21;4.10;;;3.20;;
24084;SDS011;12268;52.110;5.548;2022-07-29T08:22:46;8.18;;;3.13;;
24084;SDS011;12268;52.110;5.548;2022-07-29T08:25:12;6.97;;;3.38;;
24084;SDS011;12268;52.110;5.548;2022-07-29T08:27:37;4.53;;;3.03;;
24084;SDS011;12268;52.110;5.548;2022-07-29T08:30:03;4.70;;;2.85;;
24084;SDS011;12268;52.110;5.548;2022-07-29T08:32:29;5.65;;;3.10;;
24084;SDS011;12268;52.110;5.548;2022-07-29T08:34:56;4.40;;;3.15;;
24084;SDS011;12268;52.110;5.548;2022-07-29T08:37:21;10.15;;;3.45;;
24084;SDS011;12268;52.110;5.548;2022-07-29T08:39:47;5.38;;;3.00;;
24084;SDS011;12268;52.110;5.548;2022-07-29T08:42:12;4.88;;;3.03;;
24084;SDS011;12268;52.110;5.548;2022-07-29T08:44:38;7.40;;;2.85;;
24084;SDS011;12268;52.110;5.548;2022-07-29T08:47:04;6.45;;;3.03;;
24084;SDS011;12268;52.110;5.548;2022-07-29T08:49:32;7.05;;;3.25;;
24084;SDS011;12268;52.110;5.548;2022-07-29T08:51:59;4.68;;;2.85;;
24084;SDS011;12268;52.110;5.548;2022-07-29T08:54:25;6.65;;;3.03;;
24084;SDS011;12268;52.110;5.548;2022-07-29T08:56:52;3.95;;;2.55;;
24084;SDS011;12268;52.110;5.548;2022-07-29T08:59:19;5.18;;;2.70;;
24084;SDS011;12268;52.110;5.548;2022-07-29T09:01:46;4.88;;;2.55;;
24084;SDS011;12268;52.110;5.548;2022-07-29T09:04:13;5.25;;;2.58;;
24084;SDS011;12268;52.110;5.548;2022-07-29T09:06:45;4.70;;;2.88;;
24084;SDS011;12268;52.110;5.548;2022-07-29T09:09:12;7.35;;;3.08;;
24084;SDS011;12268;52.110;5.548;2022-07-29T09:11:39;4.53;;;2.42;;
24084;SDS011;12268;52.110;5.548;2022-07-29T09:14:05;5.95;;;2.80;;
24084;SDS011;12268;52.110;5.548;2022-07-29T09:16:44;5.53;;;3.05;;
24084;SDS011;12268;52.110;5.548;2022-07-29T09:19:26;5.22;;;2.88;;
24084;SDS011;12268;52.110;5.548;2022-07-29T09:21:58;6.00;;;2.72;;
24084;SDS011;12268;52.110;5.548;2022-07-29T09:24:26;5.88;;;3.20;;
24084;SDS011;12268;52.110;5.548;2022-07-29T09:26:58;5.47;;;2.83;;
24084;SDS011;12268;52.110;5.548;2022-07-29T09:29:23;4.53;;;2.80;;
24084;SDS011;12268;52.110;5.548;2022-07-29T09:31:50;5.80;;;2.80;;
24084;SDS011;12268;52.110;5.548;2022-07-29T09:36:53;5.80;;;3.00;;
24084;SDS011;12268;52.110;5.548;2022-07-29T09:39:53;4.03;;;2.70;;
24084;SDS011;12268;52.110;5.548;2022-07-29T09:42:12;5.20;;;2.88;;
24084;SDS011;12268;52.110;5.548;2022-07-29T09:44:42;10.52;;;3.03;;
24084;SDS011;12268;52.110;5.548;2022-07-29T09:47:13;4.03;;;2.60;;
24084;SDS011;12268;52.110;5.548;2022-07-29T09:50:12;7.25;;;2.88;;
24084;SDS011;12268;52.110;5.548;2022-07-29T09:52:31;5.75;;;2.70;;
24084;SDS011;12268;52.110;5.548;2022-07-29T09:55:06;7.20;;;3.05;;
24084;SDS011;12268;52.110;5.548;2022-07-29T09:57:33;4.28;;;2.67;;
24084;SDS011;12268;52.110;5.548;2022-07-29T10:00:09;6.75;;;2.90;;
24084;SDS011;12268;52.110;5.548;2022-07-29T10:02:38;5.97;;;2.58;;
24084;SDS011;12268;52.110;5.548;2022-07-29T10:05:05;5.18;;;2.90;;
24084;SDS011;12268;52.110;5.548;2022-07-29T10:07:50;5.20;;;2.90;;
24084;SDS011;12268;52.110;5.548;2022-07-29T10:10:20;6.30;;;3.17;;
24084;SDS011;12268;52.110;5.548;2022-07-29T10:12:54;6.07;;;2.90;;
24084;SDS011;12268;52.110;5.548;2022-07-29T10:15:21;6.05;;;2.75;;
24084;SDS011;12268;52.110;5.548;2022-07-29T10:17:52;7.20;;;3.25;;
24084;SDS011;12268;52.110;5.548;2022-07-29T10:20:19;4.80;;;2.88;;
24084;SDS011;12268;52.110;5.548;2022-07-29T10:22:46;8.90;;;3.10;;
24084;SDS011;12268;52.110;5.548;2022-07-29T10:25:12;5.35;;;3.40;;
24084;SDS011;12268;52.110;5.548;2022-07-29T10:27:39;7.55;;;3.63;;
24084;SDS011;12268;52.110;5.548;2022-07-29T10:30:05;4.82;;;3.17;;
24084;SDS011;12268;52.110;5.548;2022-07-29T10:32:34;5.60;;;3.25;;
24084;SDS011;12268;52.110;5.548;2022-07-29T10:38:07;7.35;;;3.95;;
24084;SDS011;12268;52.110;5.548;2022-07-29T10:40:49;4.15;;;3.40;;
24084;SDS011;12268;52.110;5.548;2022-07-29T10:44:00;6.55;;;3.25;;
24084;SDS011;12268;52.110;5.548;2022-07-29T10:46:28;4.85;;;3.45;;
24084;SDS011;12268;52.110;5.548;2022-07-29T10:54:18;6.40;;;3.30;;
24084;SDS011;12268;52.110;5.548;2022-07-29T10:56:44;7.22;;;4.05;;
24084;SDS011;12268;52.110;5.548;2022-07-29T11:01:51;5.10;;;3.63;;
24084;SDS011;12268;52.110;5.548;2022-07-29T11:07:18;6.35;;;4.70;;
24084;SDS011;12268;52.110;5.548;2022-07-29T11:09:44;6.32;;;4.30;;
24084;SDS011;12268;52.110;5.548;2022-07-29T11:15:11;5.00;;;4.10;;
24084;SDS011;12268;52.110;5.548;2022-07-29T11:31:16;6.05;;;4.63;;
24084;SDS011;12268;52.110;5.548;2022-07-29T11:33:45;8.75;;;4.47;;
24084;SDS011;12268;52.110;5.548;2022-07-29T11:38:37;13.05;;;4.93;;
24084;SDS011;12268;52.110;5.548;2022-07-29T11:43:53;7.28;;;5.03;;
24084;SDS011;12268;52.110;5.548;2022-07-29T11:49:11;4.82;;;4.00;;
24084;SDS011;12268;52.110;5.548;2022-07-29T11:51:38;7.53;;;4.07;;
24084;SDS011;12268;52.110;5.548;2022-07-29T11:54:05;7.53;;;3.90;;
24084;SDS011;12268;52.110;5.548;2022-07-29T11:56:33;8.55;;;3.50;;
24084;SDS011;12268;52.110;5.548;2022-07-29T12:01:30;6.85;;;4.00;;
24084;SDS011;12268;52.110;5.548;2022-07-29T12:04:05;11.80;;;4.25;;
24084;SDS011;12268;52.110;5.548;2022-07-29T12:06:35;6.75;;;3.75;;
24084;SDS011;12268;52.110;5.548;2022-07-29T12:09:06;6.97;;;3.33;;
24084;SDS011;12268;52.110;5.548;2022-07-29T12:11:32;6.85;;;3.53;;
24084;SDS011;12268;52.110;5.548;2022-07-29T12:13:58;7.35;;;3.90;;
24084;SDS011;12268;52.110;5.548;2022-07-29T12:16:34;8.20;;;3.53;;
24084;SDS011;12268;52.110;5.548;2022-07-29T12:19:00;8.40;;;3.95;;
24084;SDS011;12268;52.110;5.548;2022-07-29T12:21:27;4.45;;;3.13;;
24084;SDS011;12268;52.110;5.548;2022-07-29T12:24:12;8.52;;;3.80;;
24084;SDS011;12268;52.110;5.548;2022-07-29T12:29:17;10.82;;;3.63;;
24084;SDS011;12268;52.110;5.548;2022-07-29T12:31:44;9.52;;;4.18;;
24084;SDS011;12268;52.110;5.548;2022-07-29T12:34:11;5.63;;;3.80;;
24084;SDS011;12268;52.110;5.548;2022-07-29T12:36:38;8.57;;;3.80;;
24084;SDS011;12268;52.110;5.548;2022-07-29T12:39:05;7.55;;;3.55;;
24084;SDS011;12268;52.110;5.548;2022-07-29T12:41:31;5.43;;;3.88;;
24084;SDS011;12268;52.110;5.548;2022-07-29T12:43:57;11.00;;;5.07;;
24084;SDS011;12268;52.110;5.548;2022-07-29T12:46:22;5.82;;;3.50;;
24084;SDS011;12268;52.110;5.548;2022-07-29T12:48:52;6.55;;;3.60;;
24084;SDS011;12268;52.110;5.548;2022-07-29T12:51:31;6.30;;;3.83;;
24084;SDS011;12268;52.110;5.548;2022-07-29T12:54:11;5.43;;;3.83;;
24084;SDS011;12268;52.110;5.548;2022-07-29T12:56:39;6.13;;;3.70;;
24084;SDS011;12268;52.110;5.548;2022-07-29T13:01:39;7.13;;;3.60;;
24084;SDS011;12268;52.110;5.548;2022-07-29T13:04:05;8.10;;;4.05;;
24084;SDS011;12268;52.110;5.548;2022-07-29T13:06:38;6.00;;;3.97;;
24084;SDS011;12268;52.110;5.548;2022-07-29T13:09:15;9.93;;;4.15;;
24084;SDS011;12268;52.110;5.548;2022-07-29T13:11:43;7.60;;;4.10;;
24084;SDS011;12268;52.110;5.548;2022-07-29T13:14:10;7.88;;;3.97;;
24084;SDS011;12268;52.110;5.548;2022-07-29T13:16:59;5.97;;;3.42;;
24084;SDS011;12268;52.110;5.548;2022-07-29T13:22:02;7.00;;;4.00;;
24084;SDS011;12268;52.110;5.548;2022-07-29T13:24:28;7.15;;;4.03;;
24084;SDS011;12268;52.110;5.548;2022-07-29T13:26:54;7.90;;;3.97;;
24084;SDS011;12268;52.110;5.548;2022-07-29T13:29:19;5.45;;;3.78;;
24084;SDS011;12268;52.110;5.548;2022-07-29T13:31:45;8.70;;;4.38;;
24084;SDS011;12268;52.110;5.548;2022-07-29T13:34:10;6.00;;;3.83;;
24084;SDS011;12268;52.110;5.548;2022-07-29T13:36:36;8.75;;;4.20;;
24084;SDS011;12268;52.110;5.548;2022-07-29T13:39:02;6.45;;;3.42;;
24084;SDS011;12268;52.110;5.548;2022-07-29T13:41:28;6.88;;;3.53;;
24084;SDS011;12268;52.110;5.548;2022-07-29T13:43:54;9.02;;;3.95;;
24084;SDS011;12268;52.110;5.548;2022-07-29T13:46:20;6.43;;;4.25;;
24084;SDS011;12268;52.110;5.548;2022-07-29T13:48:45;5.50;;;4.20;;
24084;SDS011;12268;52.110;5.548;2022-07-29T13:51:11;6.18;;;3.97;;
24084;SDS011;12268;52.110;5.548;2022-07-29T13:53:37;5.65;;;3.50;;
24084;SDS011;12268;52.110;5.548;2022-07-29T13:56:02;8.68;;;3.92;;
24084;SDS011;12268;52.110;5.548;2022-07-29T13:58:30;7.18;;;3.78;;
24084;SDS011;12268;52.110;5.548;2022-07-29T14:00:56;7.63;;;4.07;;
24084;SDS011;12268;52.110;5.548;2022-07-29T14:03:22;8.32;;;3.60;;
24084;SDS011;12268;52.110;5.548;2022-07-29T14:05:49;5.40;;;3.90;;
24084;SDS011;12268;52.110;5.548;2022-07-29T14:08:14;5.38;;;2.95;;
24084;SDS011;12268;52.110;5.548;2022-07-29T14:10:40;7.82;;;3.85;;
24084;SDS011;12268;52.110;5.548;2022-07-29T14:13:05;10.10;;;3.08;;
24084;SDS011;12268;52.110;5.548;2022-07-29T14:15:31;6.28;;;3.28;;
24084;SDS011;12268;52.110;5.548;2022-07-29T14:17:56;6.30;;;3.15;;
24084;SDS011;12268;52.110;5.548;2022-07-29T14:20:22;5.53;;;2.90;;
24084;SDS011;12268;52.110;5.548;2022-07-29T14:22:47;8.77;;;3.10;;
24084;SDS011;12268;52.110;5.548;2022-07-29T14:25:13;6.22;;;3.03;;
24084;SDS011;12268;52.110;5.548;2022-07-29T14:27:38;8.23;;;2.75;;
24084;SDS011;12268;52.110;5.548;2022-07-29T14:30:05;7.63;;;2.67;;
24084;SDS011;12268;52.110;5.548;2022-07-29T14:32:31;5.90;;;2.65;;
24084;SDS011;12268;52.110;5.548;2022-07-29T14:34:56;5.85;;;2.78;;
24084;SDS011;12268;52.110;5.548;2022-07-29T14:37:22;4.57;;;2.97;;
24084;SDS011;12268;52.110;5.548;2022-07-29T14:39:47;4.55;;;2.20;;
24084;SDS011;12268;52.110;5.548;2022-07-29T14:42:13;4.65;;;2.50;;
24084;SDS011;12268;52.110;5.548;2022-07-29T14:44:39;5.53;;;2.70;;
24084;SDS011;12268;52.110;5.548;2022-07-29T14:47:06;5.88;;;2.22;;
24084;SDS011;12268;52.110;5.548;2022-07-29T14:49:31;5.43;;;3.13;;
24084;SDS011;12268;52.110;5.548;2022-07-29T14:51:57;7.68;;;2.53;;
24084;SDS011;12268;52.110;5.548;2022-07-29T14:54:22;5.35;;;2.53;;
24084;SDS011;12268;52.110;5.548;2022-07-29T14:56:48;3.75;;;2.40;;
24084;SDS011;12268;52.110;5.548;2022-07-29T14:59:15;7.85;;;3.13;;
24084;SDS011;12268;52.110;5.548;2022-07-29T15:01:41;4.10;;;2.85;;
24084;SDS011;12268;52.110;5.548;2022-07-29T15:04:07;5.75;;;2.45;;
24084;SDS011;12268;52.110;5.548;2022-07-29T15:06:32;4.03;;;2.60;;
24084;SDS011;12268;52.110;5.548;2022-07-29T15:08:58;4.72;;;2.88;;
24084;SDS011;12268;52.110;5.548;2022-07-29T15:11:24;4.07;;;2.88;;
24084;SDS011;12268;52.110;5.548;2022-07-29T15:13:50;5.18;;;2.70;;
24084;SDS011;12268;52.110;5.548;2022-07-29T15:16:15;7.85;;;2.55;;
24084;SDS011;12268;52.110;5.548;2022-07-29T15:18:41;4.43;;;2.35;;
24084;SDS011;12268;52.110;5.548;2022-07-29T15:21:07;4.72;;;2.10;;
24084;SDS011;12268;52.110;5.548;2022-07-29T15:23:32;3.70;;;2.10;;
24084;SDS011;12268;52.110;5.548;2022-07-29T15:26:01;6.07;;;2.85;;
24084;SDS011;12268;52.110;5.548;2022-07-29T15:28:27;4.60;;;2.83;;
24084;SDS011;12268;52.110;5.548;2022-07-29T15:30:53;7.57;;;2.67;;
24084;SDS011;12268;52.110;5.548;2022-07-29T15:33:19;7.00;;;3.30;;
24084;SDS011;12268;52.110;5.548;2022-07-29T15:35:45;7.20;;;3.35;;
24084;SDS011;12268;52.110;5.548;2022-07-29T15:38:10;7.10;;;3.80;;
24084;SDS011;12268;52.110;5.548;2022-07-29T15:40:36;7.22;;;3.45;;
24084;SDS011;12268;52.110;5.548;2022-07-29T15:43:05;9.95;;;3.80;;
24084;SDS011;12268;52.110;5.548;2022-07-29T15:45:37;7.32;;;3.88;;
24084;SDS011;12268;52.110;5.548;2022-07-29T15:48:08;6.57;;;3.58;;
24084;SDS011;12268;52.110;5.548;2022-07-29T15:50:34;9.30;;;3.93;;
24084;SDS011;12268;52.110;5.548;2022-07-29T15:52:59;6.90;;;3.70;;
24084;SDS011;12268;52.110;5.548;2022-07-29T15:55:25;6.38;;;3.38;;